Time;durP1;ratioP1;P1;durP2;ratioP2;P2;SDS_P1;SDS_P2;PMS_P1;PMS_P2;Temp;Humidity;BMP_temperature;BMP_pressure;BME280_temperature;BME280_humidity;BME280_pressure;Samples;Min_cycle;Max_cycle;Signal;HPM_P1;HPM_P2
2020/12/14 00:03:02;;;;;;;84.58;43.73;;;;;;;1.01;92.39;99521.17;1754935;80;21569;-68
2020/12/14 00:05:29;;;;;;;90.72;43.23;;;;;;;1.13;92.56;99521.89;1747680;80;21182;-69
2020/12/14 00:07:56;;;;;;;83.60;44.55;;;;;;;1.21;92.60;99526.52;1746752;80;21012;-68
2020/12/14 00:10:24;;;;;;;84.67;41.90;;;;;;;1.30;92.62;99537.96;1750109;80;21224;-68
2020/12/14 00:12:51;;;;;;;81.47;40.08;;;;;;;1.37;92.55;99530.56;1733469;81;24167;-69
2020/12/14 00:15:18;;;;;;;76.57;39.30;;;;;;;1.37;92.20;99532.30;1731804;81;21908;-70
2020/12/14 00:17:45;;;;;;;81.17;42.58;;;;;;;1.33;91.88;99535.35;1731577;81;21599;-69
2020/12/14 00:20:12;;;;;;;78.87;42.65;;;;;;;1.26;91.78;99533.70;1729198;81;21636;-69
2020/12/14 00:22:39;;;;;;;77.30;38.85;;;;;;;1.27;91.98;99536.72;1736862;81;21590;-69
2020/12/14 00:25:06;;;;;;;82.17;41.05;;;;;;;1.29;92.01;99537.56;1747409;80;21636;-69
2020/12/14 00:27:33;;;;;;;89.58;41.90;;;;;;;1.33;92.16;99530.20;1733451;81;21190;-69
2020/12/14 00:30:00;;;;;;;77.35;41.73;;;;;;;1.36;92.11;99537.88;1739047;81;21087;-69
2020/12/14 00:32:27;;;;;;;83.40;43.23;;;;;;;1.37;92.09;99537.00;1725751;81;21204;-68
2020/12/14 00:34:54;;;;;;;79.85;43.23;;;;;;;1.43;92.26;99542.09;1748397;80;22634;-69
2020/12/14 00:37:21;;;;;;;82.88;40.92;;;;;;;1.48;92.21;99544.14;1746051;80;21234;-69
2020/12/14 00:39:48;;;;;;;80.30;42.50;;;;;;;1.50;92.08;99551.86;1746429;80;21173;-68
2020/12/14 00:42:15;;;;;;;79.17;40.73;;;;;;;1.50;92.10;99544.98;1744643;80;21152;-69
2020/12/14 00:44:42;;;;;;;79.37;42.60;;;;;;;1.51;92.11;99548.40;1747189;80;21586;-68
2020/12/14 00:47:09;;;;;;;77.05;41.90;;;;;;;1.53;92.14;99553.94;1712171;82;21814;-70
2020/12/14 00:49:37;;;;;;;82.12;42.98;;;;;;;1.52;91.94;99553.98;1748714;80;21912;-70
2020/12/14 00:52:04;;;;;;;77.75;42.30;;;;;;;1.49;91.88;99560.02;1750668;80;21616;-69
2020/12/14 00:54:33;;;;;;;87.30;44.60;;;;;;;1.47;91.95;99564.32;1730996;81;21600;-69
2020/12/14 00:57:00;;;;;;;89.60;43.48;;;;;;;1.47;91.96;99568.63;1726302;82;21182;-70
2020/12/14 00:59:30;;;;;;;91.28;44.45;;;;;;;1.44;91.91;99564.36;1727543;81;22201;-70
2020/12/14 01:01:58;;;;;;;82.00;42.85;;;;;;;1.43;91.92;99562.67;1729212;81;21785;-69
2020/12/14 01:04:25;;;;;;;85.53;42.33;;;;;;;1.45;92.07;99562.19;1726523;81;21221;-69
2020/12/14 01:06:53;;;;;;;81.60;41.37;;;;;;;1.48;92.19;99566.02;1729099;81;21047;-69
2020/12/14 01:09:21;;;;;;;80.47;40.83;;;;;;;1.52;92.22;99565.12;1749008;80;21204;-69
2020/12/14 01:11:48;;;;;;;76.82;41.58;;;;;;;1.53;92.20;99566.81;1755840;80;21207;-69
2020/12/14 01:14:16;;;;;;;85.15;40.90;;;;;;;1.54;92.18;99565.95;1752220;80;21153;-68
2020/12/14 01:16:47;;;;;;;79.17;42.35;;;;;;;1.54;92.12;99567.24;1737843;81;21158;-68
2020/12/14 01:19:14;;;;;;;74.97;41.55;;;;;;;1.55;92.06;99570.22;1737504;81;21138;-70
2020/12/14 01:21:42;;;;;;;74.85;39.10;;;;;;;1.55;92.04;99572.80;1718113;82;21090;-69
2020/12/14 01:24:08;;;;;;;76.35;39.88;;;;;;;1.56;91.97;99573.20;1727102;81;21205;-70
2020/12/14 01:26:36;;;;;;;73.83;39.90;;;;;;;1.61;92.14;99576.16;1727647;81;21165;-69
2020/12/14 01:29:03;;;;;;;72.42;38.13;;;;;;;1.65;92.14;99573.95;1755832;80;21062;-68
2020/12/14 01:31:30;;;;;;;79.58;41.73;;;;;;;1.63;91.93;99573.14;1739978;81;21015;-69
2020/12/14 01:33:57;;;;;;;75.22;38.55;;;;;;;1.61;91.86;99578.30;1741256;81;21043;-69
2020/12/14 01:36:24;;;;;;;72.53;37.20;;;;;;;1.62;91.95;99583.84;1740186;81;21222;-70
2020/12/14 01:38:51;;;;;;;73.52;38.45;;;;;;;1.60;91.81;99579.59;1754411;80;21253;-70
2020/12/14 01:41:18;;;;;;;70.92;37.08;;;;;;;1.60;91.86;99577.02;1761283;80;21129;-69
2020/12/14 01:43:46;;;;;;;;;;;;;;;1.60;91.83;99580.88;1746720;81;21038;-69
2020/12/14 01:46:13;;;;;;;74.50;36.40;;;;;;;1.58;91.78;99586.50;1745362;81;20281;-70
2020/12/14 01:48:40;;;;;;;62.20;35.05;;;;;;;1.53;91.74;99587.39;1741971;81;21107;-70
2020/12/14 01:51:08;;;;;;;59.20;34.50;;;;;;;1.52;91.82;99585.70;1732660;80;21182;-70
2020/12/14 01:53:37;;;;;;;63.33;34.53;;;;;;;1.53;91.87;99582.25;1740215;81;21726;-69
2020/12/14 01:56:06;;;;;;;56.25;31.33;;;;;;;1.54;91.91;99581.40;1736149;81;21170;-70
2020/12/14 01:58:33;;;;;;;58.83;31.15;;;;;;;1.54;91.79;99588.23;1746999;80;21532;-70
2020/12/14 02:01:02;;;;;;;52.30;30.00;;;;;;;1.52;91.78;99586.98;1731670;81;21583;-70
2020/12/14 02:03:29;;;;;;;53.73;28.85;;;;;;;1.50;91.72;99587.44;1717642;82;21195;-69
2020/12/14 02:05:56;;;;;;;59.40;31.27;;;;;;;1.48;91.69;99584.02;1749557;80;21125;-69
2020/12/14 02:08:23;;;;;;;60.95;30.20;;;;;;;1.48;91.77;99581.45;1746025;80;21019;-69
2020/12/14 02:10:50;;;;;;;52.43;28.95;;;;;;;1.49;91.81;99585.75;1747677;80;21213;-70
2020/12/14 02:13:17;;;;;;;51.75;28.70;;;;;;;1.48;91.68;99584.02;1751337;80;21252;-69
2020/12/14 02:15:44;;;;;;;54.85;30.32;;;;;;;1.44;91.68;99582.37;1754184;80;20976;-70
2020/12/14 02:18:11;;;;;;;58.98;31.00;;;;;;;1.40;91.62;99578.15;1730519;81;21058;-68
2020/12/14 02:20:39;;;;;;;52.70;28.55;;;;;;;1.36;91.69;99573.89;1747773;80;21100;-69
2020/12/14 02:23:05;;;;;;;51.95;30.45;;;;;;;1.37;91.69;99582.02;1732363;81;21117;-69
2020/12/14 02:25:32;;;;;;;53.08;30.05;;;;;;;1.34;91.67;99573.94;1727625;81;21627;-68
2020/12/14 02:27:59;;;;;;;58.35;33.70;;;;;;;1.34;91.74;99578.20;1725851;81;21032;-70
2020/12/14 02:30:26;;;;;;;62.53;33.20;;;;;;;1.34;91.73;99578.20;1755630;80;21067;-69
2020/12/14 02:32:53;;;;;;;58.08;33.20;;;;;;;1.35;91.73;99574.78;1733292;82;21062;-69
2020/12/14 02:35:20;;;;;;;57.75;32.48;;;;;;;1.34;91.73;99576.50;1743932;80;21181;-71
2020/12/14 02:37:47;;;;;;;66.22;33.75;;;;;;;1.35;91.65;99576.06;1746379;80;21218;-70
2020/12/14 02:40:14;;;;;;;62.00;32.98;;;;;;;1.34;91.73;99576.91;1708356;82;21190;-69
2020/12/14 02:42:41;;;;;;;58.13;33.65;;;;;;;1.36;91.75;99576.47;1740756;81;20971;-70
2020/12/14 02:45:08;;;;;;;59.67;34.80;;;;;;;1.34;91.71;99571.77;1732616;81;21572;-71
2020/12/14 02:47:35;;;;;;;66.60;35.50;;;;;;;1.37;91.68;99583.30;1723193;81;21572;-70
2020/12/14 02:50:04;;;;;;;61.83;33.98;;;;;;;1.36;91.64;99581.61;1730909;81;22091;-69
2020/12/14 02:52:33;;;;;;;67.35;34.92;;;;;;;1.39;91.69;99584.14;1730473;81;21178;-70
2020/12/14 02:55:00;;;;;;;66.50;35.50;;;;;;;1.37;91.58;99585.88;1735216;81;21170;-68
2020/12/14 02:57:27;;;;;;;64.67;37.08;;;;;;;1.38;91.68;99579.88;1738635;81;21252;-70
2020/12/14 02:59:54;;;;;;;60.38;34.18;;;;;;;1.37;91.63;99575.59;1730990;81;21190;-70
2020/12/14 03:02:21;;;;;;;72.40;36.98;;;;;;;1.38;91.67;99574.73;1731702;81;21202;-69
2020/12/14 03:04:48;;;;;;;74.27;36.53;;;;;;;1.38;91.61;99582.89;1734092;81;21176;-69
2020/12/14 03:07:15;;;;;;;70.92;34.60;;;;;;;1.39;91.75;99579.00;1733045;81;21004;-70
2020/12/14 03:09:42;;;;;;;59.38;34.18;;;;;;;1.40;91.62;99574.29;1738080;81;21087;-69
2020/12/14 03:12:11;;;;;;;65.72;36.40;;;;;;;1.43;91.69;99582.37;1733294;81;21139;-71
2020/12/14 03:14:38;;;;;;;62.75;34.03;;;;;;;1.43;91.70;99580.68;1732704;81;21220;-71
2020/12/14 03:17:06;;;;;;;65.70;34.70;;;;;;;1.41;91.47;99581.56;1745672;81;21134;-70
2020/12/14 03:19:34;;;;;;;62.55;33.18;;;;;;;1.35;91.45;99581.20;1754049;80;21157;-70
2020/12/14 03:22:01;;;;;;;60.38;35.17;;;;;;;1.32;91.42;99576.11;1740434;81;21175;-70
2020/12/14 03:24:28;;;;;;;72.12;35.83;;;;;;;1.31;91.46;99578.23;1737354;81;21155;-69
2020/12/14 03:26:55;;;;;;;66.55;36.05;;;;;;;1.30;91.50;99576.55;1737049;81;21612;-71
2020/12/14 03:29:22;;;;;;;65.15;35.03;;;;;;;1.29;91.54;99580.84;1738970;81;21052;-69
2020/12/14 03:31:49;;;;;;;66.90;36.73;;;;;;;1.29;91.57;99585.15;1755685;80;21163;-70
2020/12/14 03:34:16;;;;;;;59.10;31.33;;;;;;;1.29;91.65;99582.58;1750138;80;21192;-70
2020/12/14 03:36:43;;;;;;;58.78;32.50;;;;;;;1.30;91.58;99586.84;1757908;80;21176;-69
2020/12/14 03:39:10;;;;;;;55.60;33.35;;;;;;;1.25;91.46;99585.59;1752979;80;22590;-69
2020/12/14 03:41:37;;;;;;;65.42;34.53;;;;;;;1.25;91.59;99580.89;1746890;81;21173;-69
2020/12/14 03:44:04;;;;;;;59.67;32.08;;;;;;;1.25;91.60;99592.47;1737744;81;21015;-69
2020/12/14 03:46:35;;;;;;;61.15;32.00;;;;;;;1.26;91.62;99592.87;1745378;81;21165;-71
2020/12/14 03:49:02;;;;;;;54.58;32.03;;;;;;;1.27;91.65;99590.30;1741095;81;21087;-71
2020/12/14 03:51:30;;;;;;;;;;;;;;;1.29;91.65;99598.85;1740557;81;21663;-68
2020/12/14 03:53:58;;;;;;;51.20;30.20;;;;;;;1.30;91.62;99600.55;1745692;81;20167;-70
2020/12/14 03:56:25;;;;;;;52.27;29.42;;;;;;;1.28;91.55;99600.14;1744070;81;21036;-69
2020/12/14 03:58:53;;;;;;;48.70;28.75;;;;;;;1.27;91.50;99611.31;1742611;81;21168;-70
2020/12/14 04:01:25;;;;;;;49.50;28.77;;;;;;;1.25;91.38;99605.33;1755064;80;21033;-69
2020/12/14 04:03:53;;;;;;;45.98;28.35;;;;;;;1.25;91.45;99604.04;1744491;81;21268;-70
2020/12/14 04:06:24;;;;;;;45.48;28.25;;;;;;;1.23;91.42;99592.50;1737251;81;21061;-69
2020/12/14 04:08:53;;;;;;;47.13;28.47;;;;;;;1.25;91.51;99600.18;1736714;81;21028;-70
2020/12/14 04:11:20;;;;;;;49.50;27.10;;;;;;;1.26;91.49;99604.03;1731007;81;21008;-69
2020/12/14 04:13:47;;;;;;;;;;;;;;;1.27;91.48;99612.59;1738643;81;21587;-69
2020/12/14 04:16:15;;;;;;;50.30;27.85;;;;;;;1.26;91.37;99605.73;1728438;81;22177;-69
2020/12/14 04:18:42;;;;;;;;;;;;;;;1.23;91.39;99608.34;1733783;81;21616;-70
2020/12/14 04:21:09;;;;;;;44.45;26.30;;;;;;;1.21;91.37;99604.95;1726742;81;20289;-69
2020/12/14 04:23:37;;;;;;;41.77;26.25;;;;;;;1.21;91.47;99611.39;1728221;81;21189;-69
2020/12/14 04:26:05;;;;;;;;;;;;;;;1.19;91.34;99611.39;1758176;80;21527;-69
2020/12/14 04:28:33;;;;;;;52.10;28.60;;;;;;;1.16;91.34;99606.72;1728134;81;21172;-70
2020/12/14 04:31:00;;;;;;;40.28;24.37;;;;;;;1.15;91.36;99605.88;1730584;81;21067;-70
2020/12/14 04:33:28;;;;;;;45.65;27.73;;;;;;;1.14;91.30;99613.59;1744433;81;21667;-69
2020/12/14 04:35:55;;;;;;;47.78;26.82;;;;;;;1.11;91.36;99614.47;1738967;81;21566;-70
2020/12/14 04:38:22;;;;;;;48.15;28.57;;;;;;;1.13;91.35;99617.05;1724590;81;21634;-70
2020/12/14 04:40:49;;;;;;;47.15;28.52;;;;;;;1.07;91.20;99605.95;1739999;81;21207;-69
2020/12/14 04:43:16;;;;;;;;;;;;;;;1.03;91.16;99608.12;1736638;81;21627;-70
2020/12/14 04:45:46;;;;;;;53.38;28.27;;;;;;;1.02;91.20;99615.42;1737770;80;20554;-70
2020/12/14 04:48:15;;;;;;;49.23;29.10;;;;;;;1.00;91.21;99614.58;1739222;81;21179;-71
2020/12/14 04:50:44;;;;;;;46.85;27.20;;;;;;;1.01;91.43;99622.73;1756622;80;21194;-70
2020/12/14 04:53:11;;;;;;;53.45;29.18;;;;;;;1.04;91.41;99620.56;1747830;80;21206;-69
2020/12/14 04:55:38;;;;;;;47.80;27.67;;;;;;;1.05;91.35;99626.96;1757053;80;21173;-70
2020/12/14 04:58:07;;;;;;;52.53;28.85;;;;;;;1.03;91.30;99614.55;1756116;80;21161;-70
2020/12/14 05:00:35;;;;;;;50.60;28.95;;;;;;;1.02;91.22;99610.28;1747941;81;21168;-69
2020/12/14 05:03:03;;;;;;;51.55;28.92;;;;;;;0.98;91.12;99618.91;1745525;80;21229;-69
2020/12/14 05:05:31;;;;;;;50.58;30.37;;;;;;;0.99;91.33;99617.19;1739111;81;21678;-70
2020/12/14 05:07:59;;;;;;;46.53;26.73;;;;;;;0.99;91.38;99620.60;1735158;81;20948;-70
2020/12/14 05:10:29;;;;;;;53.58;30.57;;;;;;;1.00;91.32;99617.15;1736700;81;21019;-69
2020/12/14 05:12:56;;;;;;;50.92;29.20;;;;;;;1.01;91.41;99621.45;1735905;81;21065;-69
2020/12/14 05:15:31;;;;;;;55.52;28.90;;;;;;;1.02;91.38;99627.00;1738016;81;21182;-69
2020/12/14 05:18:12;;;;;;;53.52;30.32;;;;;;;1.02;91.38;99625.71;1750157;80;22180;-69
2020/12/14 05:20:41;;;;;;;45.75;27.62;;;;;;;1.02;91.36;99621.01;1734447;81;21182;-70
2020/12/14 05:23:10;;;;;;;46.28;27.58;;;;;;;1.05;91.37;99628.69;1721077;81;21007;-68
2020/12/14 05:25:38;;;;;;;53.87;29.67;;;;;;;1.05;91.35;99628.25;1745791;80;21185;-68
2020/12/14 05:28:16;;;;;;;49.73;29.45;;;;;;;1.02;91.33;99628.28;1733848;81;21123;-69
2020/12/14 05:30:49;;;;;;;54.33;30.37;;;;;;;1.02;91.31;99629.56;1735099;81;21970;-70
2020/12/14 05:33:23;;;;;;;48.90;29.20;;;;;;;1.04;91.39;99631.70;1735394;81;21087;-69
2020/12/14 05:35:50;;;;;;;51.35;28.47;;;;;;;1.06;91.43;99637.66;1736838;81;21063;-69
2020/12/14 05:38:31;;;;;;;;;;;;;;;1.09;91.39;99640.22;1751013;80;21151;-68
2020/12/14 05:41:02;;;;;;;43.10;25.52;;;;;;;1.06;91.23;99640.66;1723714;81;20258;-70
2020/12/14 05:43:33;;;;;;;47.78;25.10;;;;;;;1.02;91.16;99632.58;1728327;81;21267;-68
2020/12/14 05:46:15;;;;;;;41.42;23.25;;;;;;;1.00;91.17;99640.30;1755603;80;21179;-69
2020/12/14 05:48:44;;;;;;;51.98;27.52;;;;;;;1.02;91.31;99637.28;1742080;81;21206;-69
2020/12/14 05:51:13;;;;;;;46.70;26.20;;;;;;;1.03;91.37;99637.69;1743797;81;21150;-68
2020/12/14 05:53:53;;;;;;;46.13;26.05;;;;;;;1.03;91.31;99641.98;1736322;81;21181;-68
2020/12/14 05:56:20;;;;;;;47.95;25.35;;;;;;;1.04;91.27;99636.84;1739438;81;21211;-69
2020/12/14 05:58:52;;;;;;;48.42;26.75;;;;;;;1.03;91.22;99635.11;1750285;81;20975;-70
2020/12/14 06:01:21;;;;;;;52.53;26.68;;;;;;;1.03;91.30;99626.12;1749011;80;21624;-68
2020/12/14 06:03:49;;;;;;;43.50;25.55;;;;;;;1.08;91.35;99628.21;1750110;81;21603;-69
2020/12/14 06:06:19;;;;;;;49.20;25.97;;;;;;;1.12;91.46;99636.73;1747871;81;21198;-69
2020/12/14 06:08:57;;;;;;;41.48;24.50;;;;;;;1.09;91.20;99637.66;1704779;83;21649;-69
2020/12/14 06:11:26;;;;;;;42.33;25.70;;;;;;;1.09;91.14;99641.92;1733619;81;21163;-69
2020/12/14 06:13:59;;;;;;;46.40;26.85;;;;;;;1.09;91.22;99649.22;1740083;81;21035;-69
2020/12/14 06:16:32;;;;;;;43.15;25.00;;;;;;;1.05;91.12;99651.39;1742597;80;21088;-70
2020/12/14 06:18:59;;;;;;;46.90;26.87;;;;;;;1.05;91.25;99643.67;1742952;81;21147;-70
2020/12/14 06:21:45;;;;;;;46.40;26.80;;;;;;;1.04;91.19;99638.13;1729144;81;21665;-69
2020/12/14 06:24:35;;;;;;;50.03;27.23;;;;;;;1.05;91.26;99646.25;1730793;81;21642;-70
2020/12/14 06:27:28;;;;;;;47.43;26.95;;;;;;;1.03;91.16;99650.55;1723255;81;21022;-68
2020/12/14 06:29:56;;;;;;;42.03;24.57;;;;;;;1.03;91.26;99645.40;1725202;81;20982;-68
2020/12/14 06:32:41;;;;;;;46.33;26.25;;;;;;;1.01;91.15;99651.02;1737567;81;21569;-67
2020/12/14 06:35:16;;;;;;;47.90;25.48;;;;;;;0.96;91.06;99648.91;1734034;81;22145;-68
2020/12/14 06:37:50;;;;;;;39.23;23.10;;;;;;;0.95;91.12;99653.62;1737744;81;21734;-68
2020/12/14 06:40:19;;;;;;;42.38;24.10;;;;;;;0.91;91.11;99650.67;1738097;81;21170;-67
2020/12/14 06:42:48;;;;;;;42.38;23.15;;;;;;;0.89;91.05;99649.82;1743348;80;21266;-68
2020/12/14 06:45:16;;;;;;;45.63;24.23;;;;;;;0.89;91.21;99651.11;1740591;81;21248;-68
2020/12/14 06:47:47;;;;;;;40.67;22.05;;;;;;;0.91;91.19;99653.24;1742579;81;22702;-69
2020/12/14 06:50:28;;;;;;;39.18;22.45;;;;;;;0.92;91.17;99659.23;1737111;80;21253;-68
2020/12/14 06:52:57;;;;;;;37.93;22.75;;;;;;;0.90;91.13;99664.40;1738102;81;21031;-68
2020/12/14 06:55:47;;;;;;;35.33;21.65;;;;;;;0.88;91.05;99668.70;1734919;81;21628;-70
2020/12/14 06:58:44;;;;;;;34.33;19.80;;;;;;;0.91;91.10;99669.11;1837300;76;22213;-67
2020/12/14 07:01:38;;;;;;;39.83;21.62;;;;;;;0.84;91.02;99676.00;1805546;77;21172;-69
2020/12/14 07:04:17;;;;;;;34.85;21.95;;;;;;;0.81;91.10;99679.88;1806221;77;21198;-69
2020/12/14 07:06:45;;;;;;;34.73;20.15;;;;;;;0.78;91.15;99679.91;1791033;77;21641;-69
2020/12/14 07:09:32;;;;;;;38.13;20.00;;;;;;;0.76;91.18;99673.95;1770294;80;21187;-71
2020/12/14 07:12:15;;;;;;;34.67;19.25;;;;;;;0.74;91.09;99682.09;1772608;78;21637;-69
2020/12/14 07:14:51;;;;;;;39.98;20.27;;;;;;;0.72;91.06;99681.25;1743951;80;21021;-70
2020/12/14 07:17:28;;;;;;;37.67;20.47;;;;;;;0.69;91.12;99685.12;1741723;80;22163;-69
2020/12/14 07:20:02;;;;;;;33.35;19.82;;;;;;;0.69;91.19;99690.27;1744205;80;21103;-70
2020/12/14 07:22:50;;;;;;;41.37;21.48;;;;;;;0.74;91.29;99692.38;1739640;80;21127;-69
2020/12/14 07:25:24;;;;;;;37.67;23.02;;;;;;;0.73;91.12;99686.80;1741964;80;21771;-69
2020/12/14 07:27:51;;;;;;;41.53;21.70;;;;;;;0.74;91.20;99694.95;1725477;80;21207;-69
2020/12/14 07:30:21;;;;;;;49.38;25.72;;;;;;;0.77;91.26;99696.20;1749418;80;21250;-70
2020/12/14 07:32:55;;;;;;;49.33;26.65;;;;;;;0.82;91.33;99697.03;1730095;80;21201;-70
2020/12/14 07:35:25;;;;;;;40.45;24.55;;;;;;;0.85;91.16;99699.57;1708081;81;21197;-70
2020/12/14 07:38:03;;;;;;;39.78;23.45;;;;;;;0.84;91.07;99705.56;1750575;80;21081;-70
2020/12/14 07:40:47;;;;;;;44.30;24.15;;;;;;;0.82;91.04;99703.45;1745618;80;22001;-71
2020/12/14 07:43:22;;;;;;;42.67;23.00;;;;;;;0.85;91.13;99698.28;1745181;80;21201;-70
2020/12/14 07:45:56;;;;;;;37.45;21.87;;;;;;;0.86;91.05;99707.69;1746774;80;21370;-71
2020/12/14 07:48:27;;;;;;;46.13;24.70;;;;;;;0.87;91.00;99700.42;1752609;80;21030;-70
2020/12/14 07:51:03;;;;;;;39.83;24.87;;;;;;;0.88;91.07;99705.97;1748942;80;21917;-71
2020/12/14 07:53:42;;;;;;;;;;;;;;;0.89;91.08;99701.23;1753685;80;21150;-69
2020/12/14 07:56:22;;;;;;;29.00;18.65;;;;;;;0.92;91.07;99701.20;1749342;79;24848;-68
2020/12/14 07:59:07;;;;;;;33.25;20.32;;;;;;;0.91;91.01;99703.81;1757358;81;21129;-72
2020/12/14 08:01:46;;;;;;;;;;;;;;;0.92;91.06;99706.34;1701068;81;21928;-72
2020/12/14 08:04:46;;;;;;;33.18;20.43;;;;;;;0.97;91.23;99716.17;1748120;79;20535;-70
2020/12/14 08:07:16;;;;;;;35.45;19.20;;;;;;;0.98;91.09;99719.18;1753203;80;21632;-72
2020/12/14 08:09:46;;;;;;;28.23;18.62;;;;;;;0.97;91.02;99720.02;1754261;81;22272;-72
2020/12/14 08:12:22;;;;;;;35.23;18.20;;;;;;;0.95;90.90;99716.61;1707023;81;21297;-71
2020/12/14 08:14:50;;;;;;;31.70;17.80;;;;;;;0.93;90.85;99723.50;1752677;80;21202;-71
2020/12/14 08:17:22;;;;;;;28.77;18.10;;;;;;;0.90;90.84;99726.09;1754858;80;21152;-71
2020/12/14 08:19:56;;;;;;;26.55;16.65;;;;;;;0.89;90.80;99729.52;1753847;80;21166;-72
2020/12/14 08:22:33;;;;;;;28.07;17.85;;;;;;;0.88;90.93;99723.53;1756756;80;21309;-73
2020/12/14 08:25:10;;;;;;;26.52;16.40;;;;;;;0.89;90.82;99732.09;1754784;80;21569;-71
2020/12/14 08:27:57;;;;;;;25.60;16.07;;;;;;;0.85;90.83;99727.84;1757550;81;21262;-72
2020/12/14 08:30:31;;;;;;;24.72;17.07;;;;;;;0.83;90.84;99734.70;1755683;79;21242;-72
2020/12/14 08:33:18;;;;;;;25.72;16.97;;;;;;;0.83;90.84;99737.28;1741792;80;21192;-71
2020/12/14 08:35:52;;;;;;;24.07;15.83;;;;;;;0.83;90.94;99739.84;1751085;80;21174;-73
2020/12/14 08:38:29;;;;;;;25.37;15.53;;;;;;;0.83;90.80;99744.99;1757589;79;21655;-71
2020/12/14 08:41:03;;;;;;;22.10;15.45;;;;;;;0.76;90.72;99739.05;1755741;79;21206;-73
2020/12/14 08:43:36;;;;;;;20.82;14.30;;;;;;;0.80;90.94;99733.45;1755643;79;21062;-72
2020/12/14 08:46:16;;;;;;;29.80;16.60;;;;;;;0.81;90.87;99734.73;1752427;79;21615;-70
2020/12/14 08:48:55;;;;;;;22.85;16.32;;;;;;;0.80;90.89;99734.73;1757962;79;22165;-72
2020/12/14 08:51:30;;;;;;;;;;;;;;;0.81;90.96;99745.42;1761854;79;21156;-73
2020/12/14 08:53:58;;;;;;;19.70;15.00;;;;;;;0.88;90.95;99748.39;1752228;80;20266;-71
2020/12/14 08:56:34;;;;;;;19.32;13.43;;;;;;;0.89;91.00;99744.94;1751664;80;21608;-71
2020/12/14 08:59:03;;;;;;;20.13;13.27;;;;;;;0.91;90.85;99748.36;1738428;81;21219;-74
2020/12/14 09:01:36;;;;;;;19.60;14.18;;;;;;;0.89;90.78;99750.08;1719049;81;21863;-73
2020/12/14 09:04:05;;;;;;;20.02;13.95;;;;;;;0.86;90.70;99750.11;1748705;80;21005;-73
2020/12/14 09:06:35;;;;;;;26.68;14.80;;;;;;;0.85;90.79;99749.70;1736941;81;21524;-72
2020/12/14 09:09:09;;;;;;;20.62;14.45;;;;;;;0.90;90.86;99751.80;1738319;81;21131;-71
2020/12/14 09:11:44;;;;;;;17.05;13.78;;;;;;;0.96;90.99;99746.61;1743670;80;21242;-73
2020/12/14 09:14:32;;;;;;;21.12;14.28;;;;;;;1.02;91.09;99746.55;1739803;80;21641;-74
2020/12/14 09:17:07;;;;;;;21.90;14.38;;;;;;;1.07;90.92;99744.80;1742320;81;21596;-71
2020/12/14 09:19:50;;;;;;;20.00;13.32;;;;;;;1.16;91.06;99750.73;1720351;81;21229;-73
2020/12/14 09:22:25;;;;;;;18.17;12.15;;;;;;;1.21;90.87;99759.27;1743003;80;21243;-73
2020/12/14 09:24:52;;;;;;;14.18;10.53;;;;;;;1.26;90.91;99754.92;1738318;80;21652;-72
2020/12/14 09:27:21;;;;;;;14.45;10.60;;;;;;;1.28;90.79;99753.19;1720490;81;21587;-74
2020/12/14 09:29:48;;;;;;;14.05;11.00;;;;;;;1.30;90.71;99748.89;1769089;80;21091;-70
2020/12/14 09:32:17;;;;;;;13.53;11.08;;;;;;;1.32;90.77;99747.17;1757745;80;21092;-70
2020/12/14 09:34:44;;;;;;;12.15;10.55;;;;;;;1.33;90.66;99748.42;1755949;79;21109;-74
2020/12/14 09:37:11;;;;;;;14.10;10.98;;;;;;;1.38;90.76;99751.41;1762962;79;21147;-73
2020/12/14 09:39:41;;;;;;;12.95;10.32;;;;;;;1.45;90.70;99748.73;1757488;80;21116;-72
2020/12/14 09:42:08;;;;;;;12.78;9.73;;;;;;;1.49;90.68;99741.86;1759504;80;21258;-72
2020/12/14 09:44:37;;;;;;;13.38;9.98;;;;;;;1.54;90.72;99738.38;1764911;80;21235;-72
2020/12/14 09:47:04;;;;;;;14.40;11.12;;;;;;;1.60;90.48;99737.45;1747989;81;21685;-73
2020/12/14 09:49:32;;;;;;;13.60;10.38;;;;;;;1.65;90.66;99734.81;1748287;81;21230;-71
2020/12/14 09:51:59;;;;;;;12.60;9.85;;;;;;;1.75;90.72;99737.72;1766309;80;21195;-73
2020/12/14 09:54:36;;;;;;;13.95;10.48;;;;;;;1.78;90.51;99731.23;1761744;80;21067;-72
2020/12/14 09:57:09;;;;;;;18.27;12.30;;;;;;;1.82;90.46;99735.50;1749667;81;21131;-74
2020/12/14 09:59:45;;;;;;;22.10;17.10;;;;;;;1.84;90.39;99731.16;1747329;81;21191;-72
2020/12/14 10:02:15;;;;;;;47.83;26.70;;;;;;;1.92;90.57;99726.78;1751495;81;21182;-72
2020/12/14 10:04:45;;;;;;;22.67;16.70;;;;;;;1.99;90.51;99725.84;1752030;81;21151;-73
2020/12/14 10:07:12;;;;;;;23.18;15.58;;;;;;;2.08;90.61;99717.15;1746708;81;21577;-73
2020/12/14 10:09:42;;;;;;;23.62;16.57;;;;;;;2.24;90.67;99711.34;1754780;80;20938;-75
2020/12/14 10:12:09;;;;;;;21.80;16.20;;;;;;;2.30;90.25;99717.72;1752065;81;20993;-76
2020/12/14 10:14:36;;;;;;;21.68;15.98;;;;;;;2.33;90.29;99711.23;1720822;81;21063;-74
2020/12/14 10:17:03;;;;;;;20.77;14.65;;;;;;;2.37;90.36;99713.33;1749796;81;21201;-71
2020/12/14 10:19:31;;;;;;;20.00;14.50;;;;;;;2.46;90.42;99706.33;1767518;80;21082;-74
2020/12/14 10:22:01;;;;;;;18.90;14.40;;;;;;;2.44;90.22;99705.49;1760437;80;21141;-73
2020/12/14 10:24:28;;;;;;;22.90;14.18;;;;;;;2.38;90.04;99703.02;1737774;81;21316;-73
2020/12/14 10:26:56;;;;;;;21.55;14.13;;;;;;;2.31;89.90;99703.95;1733423;81;21025;-73
2020/12/14 10:29:23;;;;;;;20.05;15.40;;;;;;;2.23;89.94;99707.07;1768565;79;22443;-73
2020/12/14 10:31:52;;;;;;;20.45;15.98;;;;;;;2.24;90.16;99708.35;1766727;80;21232;-73
2020/12/14 10:34:19;;;;;;;35.13;18.70;;;;;;;2.28;90.21;99706.58;1740220;81;21151;-72
2020/12/14 10:36:48;;;;;;;22.42;16.35;;;;;;;2.30;90.34;99709.99;1742860;81;21198;-73
2020/12/14 10:39:17;;;;;;;19.67;15.30;;;;;;;2.33;90.32;99702.66;1742112;81;21205;-72
2020/12/14 10:41:44;;;;;;;24.23;15.78;;;;;;;2.39;90.35;99699.55;1743351;81;21368;-72
2020/12/14 10:44:11;;;;;;;23.30;16.77;;;;;;;2.41;90.25;99702.13;1767073;80;21676;-74
2020/12/14 10:46:38;;;;;;;27.07;18.07;;;;;;;2.46;90.25;99698.60;1741316;81;21207;-75
2020/12/14 10:49:05;;;;;;;29.20;17.45;;;;;;;2.50;90.17;99708.86;1730864;81;21582;-73
2020/12/14 10:51:32;;;;;;;26.70;18.12;;;;;;;2.48;89.98;99710.60;1726474;81;21187;-74
2020/12/14 10:53:59;;;;;;;26.50;17.85;;;;;;;2.47;90.01;99707.18;1732040;81;21482;-73
2020/12/14 10:56:26;;;;;;;27.05;16.62;;;;;;;2.44;89.87;99705.49;1745890;80;21113;-73
2020/12/14 10:58:55;;;;;;;27.07;17.23;;;;;;;2.39;89.76;99707.28;1771521;79;21637;-74
2020/12/14 11:01:26;;;;;;;25.40;16.60;;;;;;;2.40;90.02;99706.39;1759762;80;21687;-72
2020/12/14 11:03:53;;;;;;;26.52;17.45;;;;;;;2.42;90.03;99702.08;1784096;79;21207;-74
2020/12/14 11:06:20;;;;;;;25.95;17.07;;;;;;;2.45;90.09;99693.45;1786435;78;21460;-72
2020/12/14 11:08:49;;;;;;;28.73;17.57;;;;;;;2.42;89.88;99689.20;1752413;80;21209;-73
2020/12/14 11:11:16;;;;;;;23.45;15.40;;;;;;;2.35;89.78;99695.33;1781384;79;21206;-76
2020/12/14 11:13:43;;;;;;;23.87;15.85;;;;;;;2.31;89.68;99700.09;1757493;80;21184;-75
2020/12/14 11:16:10;;;;;;;25.12;16.10;;;;;;;2.27;89.79;99693.30;1773296;79;21095;-74
2020/12/14 11:18:41;;;;;;;27.60;17.37;;;;;;;2.22;89.75;99699.78;1771457;78;22252;-76
2020/12/14 11:21:10;;;;;;;27.40;16.80;;;;;;;2.22;89.91;99693.78;1774196;78;21072;-73
2020/12/14 11:23:39;;;;;;;23.60;15.60;;;;;;;2.25;89.90;99691.16;1772857;79;21213;-75
2020/12/14 11:26:06;;;;;;;22.37;15.03;;;;;;;2.23;89.83;99710.94;1751355;80;21576;-72
2020/12/14 11:28:49;;;;;;;24.00;16.45;;;;;;;2.22;89.74;99706.67;1758122;80;21636;-76
2020/12/14 11:31:27;;;;;;;25.92;17.92;;;;;;;2.26;89.81;99708.31;1719694;81;148696;-74
2020/12/14 11:33:54;;;;;;;28.75;17.98;;;;;;;2.24;89.95;99715.20;1692634;83;21292;-71
2020/12/14 11:36:28;;;;;;;29.23;18.02;;;;;;;2.28;89.97;99711.73;1692528;83;22173;-73
2020/12/14 11:38:53;;;;;;;32.65;19.48;;;;;;;2.30;89.83;99703.96;1691763;83;21222;-75
2020/12/14 11:41:20;;;;;;;28.30;18.27;;;;;;;2.31;89.57;99698.80;1693753;83;21604;-74
2020/12/14 11:43:47;;;;;;;33.02;19.80;;;;;;;2.27;89.59;99701.02;1686970;83;21076;-73
2020/12/14 11:46:14;;;;;;;34.65;20.12;;;;;;;2.30;89.76;99702.27;1682588;83;21050;-72